Terminal Aerodrome Forecast
Issued by NWS Spokane, WA

Home | Current Version | Previous Version | Text Only | Print | Product List | Glossary On
Versions: 1 2 3 4 5 6 7 8 9 10 11 12 13 14 15 16 17 18 19 20 21 22 23 24 25 26 27 28 29 30 31 32 33 34 35 36
000
FTUS46 KOTX 281739
TAFGEG
TAF
KGEG 281739Z 2818/2918 21026G33KT P6SM FEW025 SCT060
     FM282100 24019G30KT P6SM BKN040
     FM282300 24016G22KT P6SM SCT050
     FM290200 22010KT P6SM SCT250
     FM291500 17008KT P6SM BKN070=

USA.gov is the U.S. government's official web portal to all federal, state and local government web resources and services.